createdAt,value
2018-01-06T00:00:15.115Z,15.03
2018-01-06T00:02:41.299Z,15.43
2018-01-06T00:05:07.507Z,14.70
2018-01-06T00:07:33.681Z,14.80
2018-01-06T00:10:00.604Z,16.00
2018-01-06T00:12:26.801Z,15.73
2018-01-06T00:14:52.979Z,14.30
2018-01-06T00:17:19.176Z,17.70
2018-01-06T00:19:45.387Z,17.30
2018-01-06T00:22:11.576Z,16.77
2018-01-06T00:24:37.751Z,17.60
2018-01-06T00:27:04.721Z,16.43
2018-01-06T00:29:30.924Z,17.90
2018-01-06T00:31:57.168Z,17.57
2018-01-06T00:34:23.429Z,18.20
2018-01-06T00:36:49.609Z,19.40
2018-01-06T00:39:15.827Z,20.33
2018-01-06T00:41:42.049Z,19.23
2018-01-06T00:44:08.226Z,20.07
2018-01-06T00:46:35.183Z,19.50
2018-01-06T00:49:02.196Z,18.67
2018-01-06T00:51:28.397Z,21.70
2018-01-06T00:53:54.604Z,18.80
2018-01-06T00:56:20.816Z,19.73
2018-01-06T00:58:46.988Z,19.03
2018-01-06T01:01:13.884Z,18.40
2018-01-06T01:03:40.072Z,17.03
2018-01-06T01:06:06.239Z,18.90
2018-01-06T01:08:32.424Z,17.73
2018-01-06T01:10:59.358Z,17.60
2018-01-06T01:13:25.533Z,19.00
2018-01-06T01:15:51.708Z,18.23
2018-01-06T01:18:17.888Z,19.33
2018-01-06T01:20:44.051Z,20.50
2018-01-06T01:23:10.238Z,20.37
2018-01-06T01:25:36.408Z,19.40
2018-01-06T01:28:02.590Z,21.23
2018-01-06T01:30:28.749Z,21.57
2018-01-06T01:32:54.951Z,22.47
2018-01-06T01:35:21.887Z,23.03
2018-01-06T01:37:48.080Z,19.07
2018-01-06T01:40:14.312Z,21.97
2018-01-06T01:42:40.504Z,20.87
2018-01-06T01:45:06.676Z,22.43
2018-01-06T01:47:33.973Z,21.30
2018-01-06T01:50:00.212Z,21.60
2018-01-06T01:52:26.412Z,20.33
2018-01-06T01:54:52.604Z,20.60
2018-01-06T01:57:18.792Z,19.97
2018-01-06T01:59:44.985Z,20.37
2018-01-06T02:02:11.930Z,19.37
2018-01-06T02:04:38.144Z,19.73
2018-01-06T02:07:04.316Z,19.17
2018-01-06T02:09:31.296Z,19.77
2018-01-06T02:11:57.491Z,17.90
2018-01-06T02:14:24.399Z,17.83
2018-01-06T02:16:50.673Z,18.23
2018-01-06T02:19:17.578Z,17.80
2018-01-06T02:21:43.756Z,17.00
2018-01-06T02:24:09.936Z,17.70
2018-01-06T02:26:36.131Z,16.07
2018-01-06T02:29:02.340Z,16.30
2018-01-06T02:31:28.541Z,16.90
2018-01-06T02:33:54.708Z,16.53
2018-01-06T02:36:21.628Z,17.30
2018-01-06T02:38:47.819Z,16.17
2018-01-06T02:41:14.742Z,14.50
2018-01-06T02:43:40.907Z,16.30
2018-01-06T02:46:07.852Z,15.90
2018-01-06T02:48:34.779Z,17.30
2018-01-06T02:51:01.022Z,16.43
2018-01-06T02:53:27.240Z,16.80
2018-01-06T02:55:53.412Z,18.13
2018-01-06T02:58:20.329Z,15.77
2018-01-06T03:00:46.530Z,19.37
2018-01-06T03:03:12.723Z,17.37
2018-01-06T03:05:38.900Z,18.70
2018-01-06T03:08:05.100Z,18.50
2018-01-06T03:10:32.008Z,17.97
2018-01-06T03:12:58.178Z,19.17
2018-01-06T03:15:24.380Z,19.00
2018-01-06T03:17:50.560Z,20.33
2018-01-06T03:20:16.736Z,19.00
2018-01-06T03:22:42.933Z,18.10
2018-01-06T03:25:09.104Z,19.23
2018-01-06T03:27:35.287Z,18.20
2018-01-06T03:30:03.130Z,19.77
2018-01-06T03:32:30.044Z,19.77
2018-01-06T03:34:56.212Z,19.00
2018-01-06T03:37:22.416Z,21.13
2018-01-06T03:39:48.614Z,18.83
2018-01-06T03:42:15.496Z,19.70
2018-01-06T03:44:41.688Z,21.00
2018-01-06T03:47:08.587Z,19.73
2018-01-06T03:49:34.756Z,20.60
2018-01-06T03:52:01.775Z,18.90
2018-01-06T03:54:27.963Z,18.87
2018-01-06T03:56:54.139Z,19.20
2018-01-06T03:59:20.355Z,19.17
2018-01-06T04:01:46.519Z,17.67
2018-01-06T04:04:12.691Z,18.93
2018-01-06T04:06:39.787Z,17.90
2018-01-06T04:09:05.965Z,17.83
2018-01-06T04:11:32.868Z,16.63
2018-01-06T04:13:59.068Z,19.10
2018-01-06T04:16:25.248Z,18.70
2018-01-06T04:18:51.460Z,17.40
2018-01-06T04:21:17.684Z,18.80
2018-01-06T04:23:43.870Z,17.83
2018-01-06T04:26:10.024Z,18.07
2018-01-06T04:28:36.981Z,18.63
2018-01-06T04:31:03.156Z,18.77
2018-01-06T04:33:29.336Z,16.17
2018-01-06T04:35:55.545Z,18.40
2018-01-06T04:38:21.727Z,18.90
2018-01-06T04:40:47.896Z,17.77
2018-01-06T04:43:14.080Z,16.93
2018-01-06T04:45:40.256Z,17.27
2018-01-06T04:48:06.440Z,17.37
2018-01-06T04:50:32.675Z,17.20
2018-01-06T04:52:59.244Z,17.37
2018-01-06T04:55:25.468Z,16.73
2018-01-06T04:57:52.418Z,17.37
2018-01-06T05:00:18.592Z,17.70
2018-01-06T05:02:44.769Z,18.77
2018-01-06T05:05:10.992Z,19.87
2018-01-06T05:07:37.914Z,19.37
2018-01-06T05:10:04.100Z,18.80
2018-01-06T05:12:30.481Z,17.70
2018-01-06T05:14:56.676Z,18.83
2018-01-06T05:17:22.852Z,17.13
2018-01-06T05:19:49.040Z,19.77
2018-01-06T05:22:15.229Z,18.80
2018-01-06T05:24:41.421Z,18.37
2018-01-06T05:27:07.632Z,17.97
2018-01-06T05:29:34.549Z,17.07
2018-01-06T05:32:00.725Z,16.93
2018-01-06T05:34:26.897Z,16.13
2018-01-06T05:36:53.084Z,16.67
2018-01-06T05:39:19.261Z,17.47
2018-01-06T05:41:45.467Z,16.90
2018-01-06T05:44:11.633Z,17.23
2018-01-06T05:46:37.830Z,18.40
2018-01-06T05:49:04.016Z,17.93
2018-01-06T05:51:30.191Z,17.50
2018-01-06T05:53:56.624Z,19.27
2018-01-06T05:56:22.837Z,17.27
2018-01-06T05:58:49.775Z,17.17
2018-01-06T06:01:15.960Z,18.27
2018-01-06T06:03:42.147Z,18.33
2018-01-06T06:06:08.327Z,19.83
2018-01-06T06:08:34.504Z,18.07
2018-01-06T06:11:00.711Z,18.30
2018-01-06T06:13:26.912Z,18.60
2018-01-06T06:15:53.080Z,17.93
2018-01-06T06:18:19.284Z,18.07
2018-01-06T06:20:45.452Z,17.83
2018-01-06T06:23:11.628Z,18.77
2018-01-06T06:25:38.556Z,20.10
2018-01-06T06:28:04.732Z,18.37
2018-01-06T06:30:30.905Z,17.70
2018-01-06T06:32:57.088Z,19.90
2018-01-06T06:35:23.264Z,18.80
2018-01-06T06:37:49.420Z,20.47
2018-01-06T06:40:15.613Z,19.07
2018-01-06T06:42:41.789Z,19.30
2018-01-06T06:45:07.956Z,19.57
2018-01-06T06:47:34.161Z,21.50
2018-01-06T06:50:00.328Z,19.80
2018-01-06T06:52:27.232Z,21.20
2018-01-06T06:54:53.496Z,19.73
2018-01-06T06:57:19.705Z,20.03
2018-01-06T06:59:45.881Z,19.13
2018-01-06T07:02:12.776Z,19.57
2018-01-06T07:04:38.976Z,20.50
2018-01-06T07:07:05.309Z,19.83
2018-01-06T07:09:31.510Z,19.50
2018-01-06T07:11:57.680Z,19.33
2018-01-06T07:14:23.849Z,18.90
2018-01-06T07:16:50.040Z,19.53
2018-01-06T07:19:16.939Z,18.77
2018-01-06T07:21:43.109Z,18.90
2018-01-06T07:24:10.029Z,18.53
2018-01-06T07:26:36.184Z,18.73
2018-01-06T07:29:02.378Z,17.53
2018-01-06T07:31:28.603Z,17.73
2018-01-06T07:33:54.785Z,16.87
2018-01-06T07:36:21.698Z,17.80
2018-01-06T07:38:47.884Z,16.60
2018-01-06T07:41:14.060Z,15.80
2018-01-06T07:43:40.251Z,15.63
2018-01-06T07:46:07.178Z,16.67
2018-01-06T07:48:33.339Z,16.80
2018-01-06T07:50:59.505Z,15.77
2018-01-06T07:53:25.684Z,14.20
2018-01-06T07:55:52.677Z,14.87
2018-01-06T07:58:18.872Z,15.47
2018-01-06T08:00:45.792Z,15.30
2018-01-06T08:03:11.984Z,15.93
2018-01-06T08:05:38.184Z,16.40
2018-01-06T08:08:04.379Z,14.90
2018-01-06T08:10:30.571Z,16.40
2018-01-06T08:12:56.751Z,15.47
2018-01-06T08:15:22.940Z,15.80
2018-01-06T08:17:49.116Z,14.70
2018-01-06T08:20:15.276Z,14.90
2018-01-06T08:22:41.468Z,16.30
2018-01-06T08:25:07.654Z,16.57
2018-01-06T08:27:33.855Z,15.07
2018-01-06T08:30:00.091Z,16.80
2018-01-06T08:32:26.260Z,15.97
2018-01-06T08:34:53.192Z,16.70
2018-01-06T08:37:19.376Z,17.00
2018-01-06T08:39:45.544Z,17.10
2018-01-06T08:42:11.722Z,17.70
2018-01-06T08:44:38.660Z,18.00
2018-01-06T08:47:05.581Z,17.67
2018-01-06T08:49:31.759Z,19.03
2018-01-06T08:51:57.958Z,18.97
2018-01-06T08:54:24.140Z,17.03
2018-01-06T08:56:50.403Z,18.53
2018-01-06T08:59:17.361Z,20.60
2018-01-06T09:01:43.533Z,18.33
2018-01-06T09:04:10.484Z,19.30
2018-01-06T09:06:37.417Z,19.87
2018-01-06T09:09:04.365Z,21.40
2018-01-06T09:11:31.316Z,18.77
2018-01-06T09:13:57.500Z,20.53
2018-01-06T09:16:23.680Z,21.73
2018-01-06T09:18:49.864Z,20.53
2018-01-06T09:21:16.056Z,22.00
2018-01-06T09:23:42.220Z,22.00
2018-01-06T09:26:08.392Z,22.43
2018-01-06T09:28:34.614Z,22.67
2018-01-06T09:31:00.800Z,22.43
2018-01-06T09:33:26.983Z,22.37
2018-01-06T09:35:53.164Z,22.67
2018-01-06T09:38:20.080Z,25.30
2018-01-06T09:40:46.269Z,25.03
2018-01-06T09:43:12.455Z,24.87
2018-01-06T09:45:38.616Z,22.97
2018-01-06T09:48:04.781Z,24.93
2018-01-06T09:50:30.981Z,25.50
2018-01-06T09:52:57.905Z,26.07
2018-01-06T09:55:24.080Z,26.00
2018-01-06T09:57:51.076Z,24.33
2018-01-06T10:00:17.349Z,25.70
2018-01-06T10:02:43.544Z,25.53
2018-01-06T10:05:09.780Z,24.60
2018-01-06T10:07:35.961Z,25.27
2018-01-06T10:10:02.905Z,23.40
2018-01-06T10:12:29.092Z,25.33
2018-01-06T10:14:55.252Z,27.73
2018-01-06T10:17:21.463Z,26.30
2018-01-06T10:19:47.635Z,29.00
2018-01-06T10:22:14.563Z,26.47
2018-01-06T10:24:40.744Z,27.27
2018-01-06T10:27:07.678Z,26.83
2018-01-06T10:29:34.592Z,24.93
2018-01-06T10:32:00.792Z,26.83
2018-01-06T10:34:26.997Z,26.97
2018-01-06T10:36:53.219Z,27.00
2018-01-06T10:39:19.384Z,25.83
2018-01-06T10:41:45.592Z,30.93
2018-01-06T10:44:12.532Z,26.73
2018-01-06T10:46:39.469Z,26.83
2018-01-06T10:49:05.701Z,26.27
2018-01-06T10:51:31.860Z,26.50
2018-01-06T10:53:58.783Z,26.60
2018-01-06T10:56:24.957Z,25.97
2018-01-06T10:58:51.922Z,23.93
2018-01-06T11:01:24.205Z,26.37
2018-01-06T11:03:50.390Z,26.73
2018-01-06T11:06:16.576Z,24.60
2018-01-06T11:08:42.743Z,27.00
2018-01-06T11:11:08.967Z,24.10
2018-01-06T11:13:35.151Z,24.50
2018-01-06T11:16:02.074Z,22.57
2018-01-06T11:18:28.289Z,24.30
2018-01-06T11:20:54.477Z,26.40
2018-01-06T11:23:20.652Z,23.70
2018-01-06T11:25:46.848Z,24.20
2018-01-06T11:28:13.036Z,24.30
2018-01-06T11:30:39.214Z,23.90
2018-01-06T11:33:06.140Z,24.57
2018-01-06T11:35:33.075Z,24.20
2018-01-06T11:37:59.260Z,24.13
2018-01-06T11:40:25.496Z,26.30
2018-01-06T11:42:51.672Z,25.03
2018-01-06T11:45:18.620Z,24.83
2018-01-06T11:47:45.566Z,26.13
2018-01-06T11:50:11.761Z,25.17
2018-01-06T11:52:37.965Z,26.70
2018-01-06T11:55:04.917Z,25.27
2018-01-06T11:57:31.833Z,25.73
2018-01-06T11:59:58.108Z,22.43
2018-01-06T12:02:24.300Z,23.70
2018-01-06T12:04:50.467Z,22.10
2018-01-06T12:07:17.381Z,20.30
2018-01-06T12:09:43.556Z,20.07
2018-01-06T12:12:10.508Z,22.43
2018-01-06T12:14:36.691Z,23.10
2018-01-06T12:17:02.906Z,22.43
2018-01-06T12:19:29.093Z,23.60
2018-01-06T12:21:56.046Z,22.57
2018-01-06T12:24:22.995Z,20.93
2018-01-06T12:26:49.916Z,29.40
2018-01-06T12:29:16.451Z,25.50
2018-01-06T12:31:42.648Z,23.10
2018-01-06T12:34:08.824Z,17.80
2018-01-06T12:36:34.996Z,18.03
2018-01-06T12:39:01.984Z,18.00
2018-01-06T12:41:28.196Z,10.23
2018-01-06T12:43:54.376Z,9.70
2018-01-06T12:46:20.553Z,9.60
2018-01-06T12:48:47.489Z,8.30
2018-01-06T12:51:14.448Z,7.43
2018-01-06T12:53:40.684Z,7.37
2018-01-06T12:56:07.616Z,7.50
2018-01-06T12:58:34.567Z,6.93
2018-01-06T13:01:01.805Z,5.73
2018-01-06T13:03:28.022Z,6.17
2018-01-06T13:05:54.196Z,5.23
2018-01-06T13:08:20.385Z,5.93
2018-01-06T13:10:46.548Z,7.33
2018-01-06T13:13:12.712Z,5.47
2018-01-06T13:15:39.660Z,4.73
2018-01-06T13:18:06.569Z,4.80
2018-01-06T13:20:32.728Z,4.70
2018-01-06T13:22:59.681Z,5.23
2018-01-06T13:25:26.624Z,4.60
2018-01-06T13:27:52.804Z,5.40
2018-01-06T13:30:19.013Z,5.23
2018-01-06T13:32:45.936Z,4.80
2018-01-06T13:35:12.105Z,4.27
2018-01-06T13:37:39.042Z,4.47
2018-01-06T13:40:05.212Z,9.93
2018-01-06T13:42:31.372Z,5.73
2018-01-06T13:44:57.564Z,4.40
2018-01-06T13:47:23.756Z,4.50
2018-01-06T13:49:49.931Z,4.90
2018-01-06T13:52:16.852Z,5.30
2018-01-06T13:54:44.772Z,4.90
2018-01-06T13:57:10.972Z,5.50
2018-01-06T13:59:37.896Z,5.90
2018-01-06T14:02:04.177Z,6.67
2018-01-06T14:04:30.383Z,7.87
2018-01-06T14:06:56.788Z,9.20
2018-01-06T14:09:22.963Z,6.73
2018-01-06T14:11:49.905Z,7.57
2018-01-06T14:14:16.837Z,7.60
2018-01-06T14:16:43.024Z,7.93
2018-01-06T14:19:09.185Z,8.20
2018-01-06T14:21:35.372Z,9.03
2018-01-06T14:24:02.276Z,9.40
2018-01-06T14:26:28.431Z,9.60
2018-01-06T14:28:54.608Z,7.43
2018-01-06T14:31:20.792Z,7.37
2018-01-06T14:33:46.965Z,8.13
2018-01-06T14:36:13.152Z,6.80
2018-01-06T14:38:39.337Z,6.13
2018-01-06T14:41:05.524Z,5.73
2018-01-06T14:43:31.718Z,4.23
2018-01-06T14:45:57.900Z,5.43
2018-01-06T14:48:24.075Z,5.33
2018-01-06T14:50:50.257Z,4.47
2018-01-06T14:53:16.425Z,4.43
2018-01-06T14:55:43.336Z,4.27
2018-01-06T14:58:09.532Z,4.80
2018-01-06T15:00:35.723Z,3.87
2018-01-06T15:03:03.076Z,3.83
2018-01-06T15:05:30.025Z,3.60
2018-01-06T15:07:56.217Z,3.83
2018-01-06T15:10:22.396Z,3.30
2018-01-06T15:12:49.387Z,3.87
2018-01-06T15:15:15.591Z,3.60
2018-01-06T15:17:42.528Z,3.90
2018-01-06T15:20:08.732Z,4.10
2018-01-06T15:22:34.911Z,3.80
2018-01-06T15:25:01.169Z,4.03
2018-01-06T15:27:27.385Z,3.67
2018-01-06T15:29:54.302Z,4.20
2018-01-06T15:32:20.480Z,3.50
2018-01-06T15:34:47.426Z,3.73
2018-01-06T15:37:14.337Z,3.37
2018-01-06T15:39:40.524Z,3.47
2018-01-06T15:42:06.767Z,3.30
2018-01-06T15:44:32.944Z,3.40
2018-01-06T15:46:59.848Z,3.40
2018-01-06T15:49:26.052Z,3.87
2018-01-06T15:51:52.952Z,3.93
2018-01-06T15:54:19.852Z,3.70
2018-01-06T15:56:46.043Z,3.27
2018-01-06T15:59:12.209Z,3.83
2018-01-06T16:01:39.132Z,3.67
2018-01-06T16:04:05.404Z,4.20
2018-01-06T16:06:31.596Z,3.33
2018-01-06T16:08:57.769Z,4.30
2018-01-06T16:11:24.813Z,3.80
2018-01-06T16:13:51.635Z,4.90
2018-01-06T16:16:18.593Z,5.03
2018-01-06T16:18:44.858Z,4.20
2018-01-06T16:21:11.769Z,4.57
2018-01-06T16:23:37.941Z,5.60
2018-01-06T16:26:04.888Z,8.80
2018-01-06T16:28:31.804Z,4.70
2018-01-06T16:30:57.988Z,5.50
2018-01-06T16:33:24.959Z,5.17
2018-01-06T16:35:51.119Z,4.73
2018-01-06T16:38:17.280Z,4.53
2018-01-06T16:40:43.480Z,4.60
2018-01-06T16:43:09.652Z,5.27
2018-01-06T16:45:35.851Z,5.07
2018-01-06T16:48:02.084Z,4.97
2018-01-06T16:50:28.280Z,4.80
2018-01-06T16:52:54.448Z,5.63
2018-01-06T16:55:20.688Z,5.60
2018-01-06T16:57:46.880Z,4.83
2018-01-06T17:00:13.794Z,5.20
2018-01-06T17:02:40.009Z,4.70
2018-01-06T17:05:06.256Z,5.37
2018-01-06T17:07:33.216Z,5.07
2018-01-06T17:09:59.427Z,5.37
2018-01-06T17:12:25.598Z,5.93
2018-01-06T17:14:52.522Z,5.37
2018-01-06T17:17:18.710Z,5.13
2018-01-06T17:19:44.894Z,5.57
2018-01-06T17:22:11.087Z,5.40
2018-01-06T17:24:37.284Z,5.50
2018-01-06T17:27:04.194Z,4.90
2018-01-06T17:29:30.410Z,4.80
2018-01-06T17:31:56.614Z,4.97
2018-01-06T17:34:23.524Z,5.33
2018-01-06T17:36:49.700Z,5.40
2018-01-06T17:39:16.633Z,5.63
2018-01-06T17:41:43.558Z,5.33
2018-01-06T17:44:09.740Z,5.73
2018-01-06T17:46:35.955Z,5.80
2018-01-06T17:49:02.890Z,4.63
2018-01-06T17:51:29.096Z,4.57
2018-01-06T17:53:55.309Z,5.30
2018-01-06T17:56:21.492Z,4.70
2018-01-06T17:58:47.676Z,6.20
2018-01-06T18:01:13.876Z,4.67
2018-01-06T18:03:40.068Z,4.83
2018-01-06T18:06:06.327Z,6.33
2018-01-06T18:08:32.538Z,5.00
2018-01-06T18:10:58.757Z,5.50
2018-01-06T18:13:24.896Z,5.40
2018-01-06T18:15:51.085Z,4.53
2018-01-06T18:18:18.008Z,4.97
2018-01-06T18:20:44.176Z,5.73
2018-01-06T18:23:10.355Z,5.67
2018-01-06T18:25:36.552Z,4.93
2018-01-06T18:28:02.732Z,6.00
2018-01-06T18:30:28.984Z,5.20
2018-01-06T18:32:55.174Z,5.00
2018-01-06T18:35:21.357Z,6.20
2018-01-06T18:37:48.288Z,5.30
2018-01-06T18:40:14.461Z,5.80
2018-01-06T18:42:41.390Z,5.43
2018-01-06T18:45:07.584Z,5.10
2018-01-06T18:47:33.792Z,5.43
2018-01-06T18:49:59.986Z,5.53
2018-01-06T18:52:26.168Z,5.20
2018-01-06T18:54:52.348Z,5.43
2018-01-06T18:57:18.524Z,4.83
2018-01-06T18:59:44.700Z,5.93
2018-01-06T19:02:10.862Z,6.83
2018-01-06T19:04:37.788Z,5.77
2018-01-06T19:07:04.061Z,5.27
2018-01-06T19:09:30.243Z,5.50
2018-01-06T19:11:56.752Z,6.23
2018-01-06T19:14:22.936Z,5.33
2018-01-06T19:16:49.105Z,5.40
2018-01-06T19:19:15.287Z,5.50
2018-01-06T19:21:41.469Z,6.23
2018-01-06T19:24:07.656Z,4.90
2018-01-06T19:26:33.828Z,5.27
2018-01-06T19:29:00.765Z,5.00
2018-01-06T19:31:26.929Z,6.33
2018-01-06T19:33:53.823Z,6.10
2018-01-06T19:36:20.024Z,6.00
2018-01-06T19:38:46.212Z,5.27
2018-01-06T19:41:12.399Z,7.20
2018-01-06T19:43:38.622Z,6.50
2018-01-06T19:46:04.833Z,6.40
2018-01-06T19:48:30.953Z,8.30
2018-01-06T19:50:57.901Z,6.70
2018-01-06T19:53:24.091Z,6.40
2018-01-06T19:55:50.272Z,6.77
2018-01-06T19:58:16.496Z,7.17
2018-01-06T20:00:42.657Z,7.50
2018-01-06T20:03:09.570Z,7.27
2018-01-06T20:05:37.233Z,6.93
2018-01-06T20:08:03.528Z,7.50
2018-01-06T20:10:29.729Z,7.30
2018-01-06T20:12:56.668Z,7.73
2018-01-06T20:15:23.583Z,7.40
2018-01-06T20:17:49.753Z,7.03
2018-01-06T20:20:16.693Z,7.67
2018-01-06T20:22:42.856Z,6.73
2018-01-06T20:25:09.032Z,8.17
2018-01-06T20:27:35.275Z,7.90
2018-01-06T20:30:02.124Z,7.70
2018-01-06T20:32:28.300Z,8.30
2018-01-06T20:34:55.248Z,7.77
2018-01-06T20:37:22.156Z,7.40
2018-01-06T20:39:48.329Z,8.93
2018-01-06T20:42:15.256Z,8.40
2018-01-06T20:44:41.428Z,7.27
2018-01-06T20:47:08.328Z,7.77
2018-01-06T20:49:34.512Z,8.83
2018-01-06T20:52:00.688Z,7.40
2018-01-06T20:54:26.848Z,7.97
2018-01-06T20:56:53.023Z,7.90
2018-01-06T20:59:19.220Z,6.80
2018-01-06T21:01:45.395Z,7.10
2018-01-06T21:04:11.576Z,6.00
2018-01-06T21:06:37.748Z,7.03
2018-01-06T21:09:04.872Z,4.60
2018-01-06T21:11:31.815Z,4.40
2018-01-06T21:13:57.991Z,4.60
2018-01-06T21:16:24.173Z,4.10
2018-01-06T21:18:50.403Z,4.30
2018-01-06T21:21:16.580Z,4.00
2018-01-06T21:23:43.501Z,4.17
2018-01-06T21:26:11.144Z,4.10
2018-01-06T21:28:40.452Z,4.00
2018-01-06T21:31:10.057Z,4.40
2018-01-06T21:33:39.545Z,4.60
2018-01-06T21:36:07.749Z,3.97
2018-01-06T21:38:34.541Z,4.50
2018-01-06T21:41:01.492Z,5.27
2018-01-06T21:43:28.412Z,3.93
2018-01-06T21:45:56.506Z,5.17
2018-01-06T21:48:25.041Z,4.10
2018-01-06T21:50:53.664Z,3.77
2018-01-06T21:53:23.388Z,9.37
2018-01-06T21:55:51.691Z,4.20
2018-01-06T21:58:21.730Z,4.00
2018-01-06T22:00:50.140Z,3.90
2018-01-06T22:03:18.851Z,2.63
2018-01-06T22:05:47.312Z,2.97
2018-01-06T22:08:15.251Z,2.77
2018-01-06T22:10:44.114Z,2.47
2018-01-06T22:13:14.605Z,1.80
2018-01-06T22:15:42.546Z,1.93
2018-01-06T22:18:11.446Z,3.00
2018-01-06T22:20:40.645Z,2.10
2018-01-06T22:23:09.169Z,2.27
2018-01-06T22:25:37.641Z,1.83
2018-01-06T22:28:06.000Z,2.43
2018-01-06T22:55:48.508Z,1.50
2018-01-06T22:58:17.433Z,1.50
2018-01-06T23:00:49.380Z,1.40
2018-01-06T23:03:18.628Z,2.10
2018-01-06T23:05:48.114Z,1.70
2018-01-06T23:08:16.901Z,1.40
2018-01-06T23:10:45.256Z,1.20
2018-01-06T23:13:14.388Z,1.37
2018-01-06T23:15:42.945Z,1.63
2018-01-06T23:18:11.122Z,1.93
2018-01-06T23:20:39.536Z,2.13
2018-01-06T23:23:08.095Z,1.70
2018-01-06T23:25:35.507Z,1.30
2018-01-06T23:28:01.700Z,2.17
2018-01-06T23:30:27.912Z,1.60
2018-01-06T23:32:54.105Z,1.50
2018-01-06T23:35:20.282Z,1.13
2018-01-06T23:37:46.455Z,1.70
2018-01-06T23:40:12.653Z,1.73
2018-01-06T23:42:39.565Z,1.60
2018-01-06T23:45:05.739Z,1.50
2018-01-06T23:47:31.912Z,1.50
2018-01-06T23:49:58.080Z,1.70
2018-01-06T23:52:24.276Z,1.50
2018-01-06T23:54:50.512Z,1.77
2018-01-06T23:57:16.769Z,1.70
2018-01-06T23:59:42.980Z,1.50
